sensor_id;sensor_type;location;lat;lon;timestamp;temperature;humidity
67899;DHT22;54699;51.796;10.956;2023-12-20T00:01:15;18.90;49.80
67899;DHT22;54699;51.796;10.956;2023-12-20T00:03:42;18.90;49.70
67899;DHT22;54699;51.796;10.956;2023-12-20T00:06:09;18.90;49.80
67899;DHT22;54699;51.796;10.956;2023-12-20T00:08:37;18.90;49.80
67899;DHT22;54699;51.796;10.956;2023-12-20T00:11:04;18.90;49.80
67899;DHT22;54699;51.796;10.956;2023-12-20T00:13:31;18.90;49.70
67899;DHT22;54699;51.796;10.956;2023-12-20T00:15:58;18.90;49.70
67899;DHT22;54699;51.796;10.956;2023-12-20T00:18:25;18.90;49.60
67899;DHT22;54699;51.796;10.956;2023-12-20T00:20:51;18.90;49.80
67899;DHT22;54699;51.796;10.956;2023-12-20T00:23:18;18.90;49.70
67899;DHT22;54699;51.796;10.956;2023-12-20T00:25:46;18.90;49.70
67899;DHT22;54699;51.796;10.956;2023-12-20T00:28:13;18.90;49.60
67899;DHT22;54699;51.796;10.956;2023-12-20T00:30:40;18.90;49.70
67899;DHT22;54699;51.796;10.956;2023-12-20T00:33:07;18.90;49.70
67899;DHT22;54699;51.796;10.956;2023-12-20T00:35:34;18.90;49.70
67899;DHT22;54699;51.796;10.956;2023-12-20T00:38:01;18.90;49.80
67899;DHT22;54699;51.796;10.956;2023-12-20T00:40:28;18.90;49.70
67899;DHT22;54699;51.796;10.956;2023-12-20T00:42:56;18.90;49.70
67899;DHT22;54699;51.796;10.956;2023-12-20T00:45:22;18.90;49.60
67899;DHT22;54699;51.796;10.956;2023-12-20T00:47:49;18.90;49.70
67899;DHT22;54699;51.796;10.956;2023-12-20T00:50:16;18.90;49.70
67899;DHT22;54699;51.796;10.956;2023-12-20T00:52:43;18.90;49.60
67899;DHT22;54699;51.796;10.956;2023-12-20T00:55:11;18.90;49.60
67899;DHT22;54699;51.796;10.956;2023-12-20T00:57:38;18.90;49.60
67899;DHT22;54699;51.796;10.956;2023-12-20T01:00:07;18.90;49.60
67899;DHT22;54699;51.796;10.956;2023-12-20T01:02:35;18.90;49.60
67899;DHT22;54699;51.796;10.956;2023-12-20T01:05:01;18.90;49.60
67899;DHT22;54699;51.796;10.956;2023-12-20T01:07:28;18.90;49.60
67899;DHT22;54699;51.796;10.956;2023-12-20T01:09:54;18.80;49.60
67899;DHT22;54699;51.796;10.956;2023-12-20T01:12:21;18.90;49.50
67899;DHT22;54699;51.796;10.956;2023-12-20T01:14:48;18.90;49.50
67899;DHT22;54699;51.796;10.956;2023-12-20T01:17:17;18.90;49.60
67899;DHT22;54699;51.796;10.956;2023-12-20T01:19:43;18.90;49.60
67899;DHT22;54699;51.796;10.956;2023-12-20T01:22:10;18.90;49.60
67899;DHT22;54699;51.796;10.956;2023-12-20T01:24:37;18.90;49.60
67899;DHT22;54699;51.796;10.956;2023-12-20T01:27:04;18.80;49.50
67899;DHT22;54699;51.796;10.956;2023-12-20T01:29:30;18.90;49.60
67899;DHT22;54699;51.796;10.956;2023-12-20T01:31:57;18.90;49.50
67899;DHT22;54699;51.796;10.956;2023-12-20T01:34:25;18.90;50.40
67899;DHT22;54699;51.796;10.956;2023-12-20T01:36:52;18.90;49.50
67899;DHT22;54699;51.796;10.956;2023-12-20T01:39:19;18.90;49.50
67899;DHT22;54699;51.796;10.956;2023-12-20T01:41:46;18.90;49.50
67899;DHT22;54699;51.796;10.956;2023-12-20T01:44:12;18.90;49.60
67899;DHT22;54699;51.796;10.956;2023-12-20T01:46:39;18.90;49.50
67899;DHT22;54699;51.796;10.956;2023-12-20T01:49:06;18.90;49.60
67899;DHT22;54699;51.796;10.956;2023-12-20T01:51:36;18.90;49.50
67899;DHT22;54699;51.796;10.956;2023-12-20T01:54:04;18.90;49.50
67899;DHT22;54699;51.796;10.956;2023-12-20T01:56:31;18.90;49.50
67899;DHT22;54699;51.796;10.956;2023-12-20T01:58:58;18.90;49.50
67899;DHT22;54699;51.796;10.956;2023-12-20T02:01:27;18.80;49.40
67899;DHT22;54699;51.796;10.956;2023-12-20T02:03:54;18.90;49.50
67899;DHT22;54699;51.796;10.956;2023-12-20T02:06:21;18.90;50.00
67899;DHT22;54699;51.796;10.956;2023-12-20T02:08:52;18.80;49.40
67899;DHT22;54699;51.796;10.956;2023-12-20T02:11:19;18.90;49.50
67899;DHT22;54699;51.796;10.956;2023-12-20T02:13:45;18.90;49.60
67899;DHT22;54699;51.796;10.956;2023-12-20T02:16:12;18.80;49.40
67899;DHT22;54699;51.796;10.956;2023-12-20T02:18:39;18.90;49.50
67899;DHT22;54699;51.796;10.956;2023-12-20T02:21:06;18.80;50.40
67899;DHT22;54699;51.796;10.956;2023-12-20T02:23:34;18.80;49.50
67899;DHT22;54699;51.796;10.956;2023-12-20T02:26:01;18.90;49.50
67899;DHT22;54699;51.796;10.956;2023-12-20T02:28:29;18.80;49.40
67899;DHT22;54699;51.796;10.956;2023-12-20T02:30:56;18.90;49.50
67899;DHT22;54699;51.796;10.956;2023-12-20T02:33:23;18.80;49.40
67899;DHT22;54699;51.796;10.956;2023-12-20T02:35:50;18.80;49.40
67899;DHT22;54699;51.796;10.956;2023-12-20T02:38:18;18.90;49.50
67899;DHT22;54699;51.796;10.956;2023-12-20T02:40:46;18.90;49.50
67899;DHT22;54699;51.796;10.956;2023-12-20T02:43:13;18.90;49.50
67899;DHT22;54699;51.796;10.956;2023-12-20T02:45:40;18.90;49.40
67899;DHT22;54699;51.796;10.956;2023-12-20T02:48:06;18.90;49.50
67899;DHT22;54699;51.796;10.956;2023-12-20T02:50:33;18.80;49.50
67899;DHT22;54699;51.796;10.956;2023-12-20T02:53:00;18.90;49.50
67899;DHT22;54699;51.796;10.956;2023-12-20T02:55:27;18.80;49.40
67899;DHT22;54699;51.796;10.956;2023-12-20T02:57:55;18.90;49.40
67899;DHT22;54699;51.796;10.956;2023-12-20T03:00:22;18.90;49.40
67899;DHT22;54699;51.796;10.956;2023-12-20T03:02:49;18.90;49.50
67899;DHT22;54699;51.796;10.956;2023-12-20T03:05:16;18.80;49.40
67899;DHT22;54699;51.796;10.956;2023-12-20T03:07:43;18.80;49.30
67899;DHT22;54699;51.796;10.956;2023-12-20T03:10:10;18.90;49.50
67899;DHT22;54699;51.796;10.956;2023-12-20T03:12:37;18.80;49.40
67899;DHT22;54699;51.796;10.956;2023-12-20T03:15:05;18.90;49.50
67899;DHT22;54699;51.796;10.956;2023-12-20T03:17:32;18.90;49.50
67899;DHT22;54699;51.796;10.956;2023-12-20T03:20:00;18.90;49.40
67899;DHT22;54699;51.796;10.956;2023-12-20T03:22:26;18.90;49.50
67899;DHT22;54699;51.796;10.956;2023-12-20T03:24:53;18.80;49.40
67899;DHT22;54699;51.796;10.956;2023-12-20T03:27:20;18.80;49.40
67899;DHT22;54699;51.796;10.956;2023-12-20T03:29:47;18.90;49.50
67899;DHT22;54699;51.796;10.956;2023-12-20T03:32:15;18.90;49.50
67899;DHT22;54699;51.796;10.956;2023-12-20T03:34:43;18.80;49.40
67899;DHT22;54699;51.796;10.956;2023-12-20T03:37:09;18.80;49.40
67899;DHT22;54699;51.796;10.956;2023-12-20T03:39:36;18.80;49.40
67899;DHT22;54699;51.796;10.956;2023-12-20T03:42:03;18.80;49.50
67899;DHT22;54699;51.796;10.956;2023-12-20T03:44:30;18.80;49.50
67899;DHT22;54699;51.796;10.956;2023-12-20T03:46:57;18.80;49.40
67899;DHT22;54699;51.796;10.956;2023-12-20T03:49:25;18.80;49.50
67899;DHT22;54699;51.796;10.956;2023-12-20T03:51:52;18.80;49.50
67899;DHT22;54699;51.796;10.956;2023-12-20T03:54:19;18.90;49.50
67899;DHT22;54699;51.796;10.956;2023-12-20T03:56:46;18.80;49.50
67899;DHT22;54699;51.796;10.956;2023-12-20T03:59:12;18.80;49.40
67899;DHT22;54699;51.796;10.956;2023-12-20T04:01:42;18.80;49.50
67899;DHT22;54699;51.796;10.956;2023-12-20T04:04:09;18.80;49.50
67899;DHT22;54699;51.796;10.956;2023-12-20T04:06:38;18.80;49.40
67899;DHT22;54699;51.796;10.956;2023-12-20T04:09:04;18.90;49.50
67899;DHT22;54699;51.796;10.956;2023-12-20T04:11:31;18.80;49.40
67899;DHT22;54699;51.796;10.956;2023-12-20T04:13:58;18.80;49.30
67899;DHT22;54699;51.796;10.956;2023-12-20T04:16:26;18.90;50.40
67899;DHT22;54699;51.796;10.956;2023-12-20T04:18:52;18.80;49.40
67899;DHT22;54699;51.796;10.956;2023-12-20T04:21:19;18.80;49.40
67899;DHT22;54699;51.796;10.956;2023-12-20T04:23:47;18.80;49.40
67899;DHT22;54699;51.796;10.956;2023-12-20T04:26:14;18.80;49.40
67899;DHT22;54699;51.796;10.956;2023-12-20T04:28:41;18.80;49.30
67899;DHT22;54699;51.796;10.956;2023-12-20T04:31:08;18.80;49.30
67899;DHT22;54699;51.796;10.956;2023-12-20T04:33:35;18.80;49.40
67899;DHT22;54699;51.796;10.956;2023-12-20T04:36:02;18.80;49.40
67899;DHT22;54699;51.796;10.956;2023-12-20T04:38:29;18.80;49.30
67899;DHT22;54699;51.796;10.956;2023-12-20T04:40:58;18.80;49.30
67899;DHT22;54699;51.796;10.956;2023-12-20T04:43:24;18.80;49.30
67899;DHT22;54699;51.796;10.956;2023-12-20T04:45:51;18.80;49.30
67899;DHT22;54699;51.796;10.956;2023-12-20T04:48:18;18.80;49.30
67899;DHT22;54699;51.796;10.956;2023-12-20T04:50:45;18.80;49.30
67899;DHT22;54699;51.796;10.956;2023-12-20T04:53:12;18.80;49.30
67899;DHT22;54699;51.796;10.956;2023-12-20T04:55:38;18.80;49.40
67899;DHT22;54699;51.796;10.956;2023-12-20T04:58:07;18.80;49.30
67899;DHT22;54699;51.796;10.956;2023-12-20T05:00:34;18.80;49.30
67899;DHT22;54699;51.796;10.956;2023-12-20T05:03:00;18.80;49.30
67899;DHT22;54699;51.796;10.956;2023-12-20T05:05:27;18.80;49.30
67899;DHT22;54699;51.796;10.956;2023-12-20T05:07:54;18.90;49.30
67899;DHT22;54699;51.796;10.956;2023-12-20T05:10:21;18.90;49.20
67899;DHT22;54699;51.796;10.956;2023-12-20T05:12:48;18.80;49.20
67899;DHT22;54699;51.796;10.956;2023-12-20T05:15:16;18.80;49.20
67899;DHT22;54699;51.796;10.956;2023-12-20T05:17:43;18.90;49.20
67899;DHT22;54699;51.796;10.956;2023-12-20T05:20:10;18.90;49.20
67899;DHT22;54699;51.796;10.956;2023-12-20T05:22:36;18.80;49.20
67899;DHT22;54699;51.796;10.956;2023-12-20T05:25:04;18.90;49.10
67899;DHT22;54699;51.796;10.956;2023-12-20T05:27:31;18.90;49.10
67899;DHT22;54699;51.796;10.956;2023-12-20T05:29:58;18.90;49.10
67899;DHT22;54699;51.796;10.956;2023-12-20T05:32:26;18.90;49.10
67899;DHT22;54699;51.796;10.956;2023-12-20T05:34:53;18.90;49.00
67899;DHT22;54699;51.796;10.956;2023-12-20T05:37:20;18.90;49.10
67899;DHT22;54699;51.796;10.956;2023-12-20T05:39:46;18.90;49.00
67899;DHT22;54699;51.796;10.956;2023-12-20T05:42:13;18.90;48.90
67899;DHT22;54699;51.796;10.956;2023-12-20T05:44:40;18.90;48.70
67899;DHT22;54699;51.796;10.956;2023-12-20T05:47:07;18.90;49.00
67899;DHT22;54699;51.796;10.956;2023-12-20T05:49:36;18.90;48.90
67899;DHT22;54699;51.796;10.956;2023-12-20T05:52:03;18.80;46.90
67899;DHT22;54699;51.796;10.956;2023-12-20T05:54:30;18.90;47.60
67899;DHT22;54699;51.796;10.956;2023-12-20T05:56:57;19.00;48.40
67899;DHT22;54699;51.796;10.956;2023-12-20T05:59:24;18.90;47.50
67899;DHT22;54699;51.796;10.956;2023-12-20T06:01:51;18.90;47.20
67899;DHT22;54699;51.796;10.956;2023-12-20T06:04:22;18.50;47.50
67899;DHT22;54699;51.796;10.956;2023-12-20T06:06:51;18.70;47.20
67899;DHT22;54699;51.796;10.956;2023-12-20T06:09:18;18.90;47.90
67899;DHT22;54699;51.796;10.956;2023-12-20T06:11:45;18.90;47.70
67899;DHT22;54699;51.796;10.956;2023-12-20T06:14:13;18.90;47.70
67899;DHT22;54699;51.796;10.956;2023-12-20T06:16:40;18.90;47.30
67899;DHT22;54699;51.796;10.956;2023-12-20T06:19:07;19.00;46.50
67899;DHT22;54699;51.796;10.956;2023-12-20T06:21:36;19.00;47.90
67899;DHT22;54699;51.796;10.956;2023-12-20T06:24:04;19.10;47.70
67899;DHT22;54699;51.796;10.956;2023-12-20T06:26:31;19.10;47.20
67899;DHT22;54699;51.796;10.956;2023-12-20T06:28:58;19.00;47.40
67899;DHT22;54699;51.796;10.956;2023-12-20T06:31:26;19.10;47.70
67899;DHT22;54699;51.796;10.956;2023-12-20T06:33:52;19.00;47.30
67899;DHT22;54699;51.796;10.956;2023-12-20T06:36:22;19.00;47.60
67899;DHT22;54699;51.796;10.956;2023-12-20T06:38:50;18.90;46.80
67899;DHT22;54699;51.796;10.956;2023-12-20T06:41:19;18.90;46.80
67899;DHT22;54699;51.796;10.956;2023-12-20T06:43:45;18.90;47.30
67899;DHT22;54699;51.796;10.956;2023-12-20T06:46:13;19.00;46.20
67899;DHT22;54699;51.796;10.956;2023-12-20T06:48:43;18.90;45.90
67899;DHT22;54699;51.796;10.956;2023-12-20T06:51:12;19.00;47.00
67899;DHT22;54699;51.796;10.956;2023-12-20T06:53:40;19.10;46.60
67899;DHT22;54699;51.796;10.956;2023-12-20T06:56:09;18.90;46.10
67899;DHT22;54699;51.796;10.956;2023-12-20T06:58:40;18.90;45.40
67899;DHT22;54699;51.796;10.956;2023-12-20T07:01:13;18.60;45.70
67899;DHT22;54699;51.796;10.956;2023-12-20T07:03:40;18.90;44.20
67899;DHT22;54699;51.796;10.956;2023-12-20T07:06:08;18.80;44.90
67899;DHT22;54699;51.796;10.956;2023-12-20T07:08:42;18.90;45.60
67899;DHT22;54699;51.796;10.956;2023-12-20T07:11:09;18.90;44.40
67899;DHT22;54699;51.796;10.956;2023-12-20T07:13:36;19.00;43.80
67899;DHT22;54699;51.796;10.956;2023-12-20T07:16:08;19.00;44.50
67899;DHT22;54699;51.796;10.956;2023-12-20T07:18:36;19.00;46.70
67899;DHT22;54699;51.796;10.956;2023-12-20T07:21:06;19.00;46.60
67899;DHT22;54699;51.796;10.956;2023-12-20T07:23:36;19.00;46.50
67899;DHT22;54699;51.796;10.956;2023-12-20T07:26:03;19.00;46.40
67899;DHT22;54699;51.796;10.956;2023-12-20T07:28:30;19.10;46.50
67899;DHT22;54699;51.796;10.956;2023-12-20T07:31:03;19.10;46.40
67899;DHT22;54699;51.796;10.956;2023-12-20T07:33:30;19.10;46.30
67899;DHT22;54699;51.796;10.956;2023-12-20T07:35:57;19.10;46.10
67899;DHT22;54699;51.796;10.956;2023-12-20T07:38:26;19.10;46.30
67899;DHT22;54699;51.796;10.956;2023-12-20T07:40:53;19.10;46.30
67899;DHT22;54699;51.796;10.956;2023-12-20T07:43:20;19.10;46.20
67899;DHT22;54699;51.796;10.956;2023-12-20T07:45:47;19.10;46.20
67899;DHT22;54699;51.796;10.956;2023-12-20T07:48:22;19.10;46.10
67899;DHT22;54699;51.796;10.956;2023-12-20T07:50:49;19.10;46.20
67899;DHT22;54699;51.796;10.956;2023-12-20T07:53:18;19.00;45.70
67899;DHT22;54699;51.796;10.956;2023-12-20T07:55:45;19.10;46.30
67899;DHT22;54699;51.796;10.956;2023-12-20T07:58:12;19.10;46.10
67899;DHT22;54699;51.796;10.956;2023-12-20T08:00:39;19.10;46.30
67899;DHT22;54699;51.796;10.956;2023-12-20T08:03:07;19.10;46.20
67899;DHT22;54699;51.796;10.956;2023-12-20T08:05:40;19.10;46.40
67899;DHT22;54699;51.796;10.956;2023-12-20T08:08:14;19.10;45.50
67899;DHT22;54699;51.796;10.956;2023-12-20T08:10:41;19.10;45.90
67899;DHT22;54699;51.796;10.956;2023-12-20T08:13:08;19.10;45.20
67899;DHT22;54699;51.796;10.956;2023-12-20T08:15:35;19.10;46.40
67899;DHT22;54699;51.796;10.956;2023-12-20T08:18:03;19.10;46.40
67899;DHT22;54699;51.796;10.956;2023-12-20T08:20:31;19.10;46.10
67899;DHT22;54699;51.796;10.956;2023-12-20T08:23:06;19.10;47.80
67899;DHT22;54699;51.796;10.956;2023-12-20T08:25:46;19.10;46.20
67899;DHT22;54699;51.796;10.956;2023-12-20T08:28:17;19.10;46.00
67899;DHT22;54699;51.796;10.956;2023-12-20T08:30:45;19.10;46.20
67899;DHT22;54699;51.796;10.956;2023-12-20T08:33:13;19.00;45.90
67899;DHT22;54699;51.796;10.956;2023-12-20T08:35:44;19.10;46.60
67899;DHT22;54699;51.796;10.956;2023-12-20T08:38:18;18.80;46.10
67899;DHT22;54699;51.796;10.956;2023-12-20T08:40:47;19.00;43.30
67899;DHT22;54699;51.796;10.956;2023-12-20T08:43:20;18.90;44.30
67899;DHT22;54699;51.796;10.956;2023-12-20T08:45:48;19.10;45.90
67899;DHT22;54699;51.796;10.956;2023-12-20T08:48:19;19.20;45.40
67899;DHT22;54699;51.796;10.956;2023-12-20T08:50:50;19.20;46.60
67899;DHT22;54699;51.796;10.956;2023-12-20T08:53:19;19.20;44.30
67899;DHT22;54699;51.796;10.956;2023-12-20T08:55:49;19.10;43.90
67899;DHT22;54699;51.796;10.956;2023-12-20T08:58:28;19.30;44.10
67899;DHT22;54699;51.796;10.956;2023-12-20T09:00:57;19.30;44.90
67899;DHT22;54699;51.796;10.956;2023-12-20T09:03:39;19.60;46.10
67899;DHT22;54699;51.796;10.956;2023-12-20T09:06:07;19.50;44.00
67899;DHT22;54699;51.796;10.956;2023-12-20T09:08:36;19.70;45.30
67899;DHT22;54699;51.796;10.956;2023-12-20T09:11:04;19.70;44.70
67899;DHT22;54699;51.796;10.956;2023-12-20T09:13:31;19.40;44.60
67899;DHT22;54699;51.796;10.956;2023-12-20T09:15:58;19.50;44.70
67899;DHT22;54699;51.796;10.956;2023-12-20T09:18:25;19.60;44.20
67899;DHT22;54699;51.796;10.956;2023-12-20T09:20:53;19.40;44.50
67899;DHT22;54699;51.796;10.956;2023-12-20T09:23:21;19.60;44.40
67899;DHT22;54699;51.796;10.956;2023-12-20T09:25:51;19.70;44.30
67899;DHT22;54699;51.796;10.956;2023-12-20T09:28:18;19.70;45.50
67899;DHT22;54699;51.796;10.956;2023-12-20T09:30:46;19.60;44.80
67899;DHT22;54699;51.796;10.956;2023-12-20T09:33:15;19.50;45.30
67899;DHT22;54699;51.796;10.956;2023-12-20T09:35:43;19.70;45.20
67899;DHT22;54699;51.796;10.956;2023-12-20T09:38:13;19.60;45.00
67899;DHT22;54699;51.796;10.956;2023-12-20T09:40:41;19.60;44.90
67899;DHT22;54699;51.796;10.956;2023-12-20T09:43:13;19.80;44.90
67899;DHT22;54699;51.796;10.956;2023-12-20T09:45:45;19.80;45.00
67899;DHT22;54699;51.796;10.956;2023-12-20T09:48:15;19.90;44.80
67899;DHT22;54699;51.796;10.956;2023-12-20T09:50:45;19.80;46.00
67899;DHT22;54699;51.796;10.956;2023-12-20T09:53:14;19.90;46.30
67899;DHT22;54699;51.796;10.956;2023-12-20T09:55:43;20.00;46.10
67899;DHT22;54699;51.796;10.956;2023-12-20T09:58:13;20.20;46.60
67899;DHT22;54699;51.796;10.956;2023-12-20T10:00:41;20.40;47.20
67899;DHT22;54699;51.796;10.956;2023-12-20T10:03:08;20.60;47.00
67899;DHT22;54699;51.796;10.956;2023-12-20T10:05:38;20.80;47.70
67899;DHT22;54699;51.796;10.956;2023-12-20T10:08:10;21.00;48.70
67899;DHT22;54699;51.796;10.956;2023-12-20T10:10:38;21.10;48.10
67899;DHT22;54699;51.796;10.956;2023-12-20T10:13:06;21.10;47.00
67899;DHT22;54699;51.796;10.956;2023-12-20T10:15:41;21.20;46.80
67899;DHT22;54699;51.796;10.956;2023-12-20T10:18:12;21.00;47.10
67899;DHT22;54699;51.796;10.956;2023-12-20T10:20:41;20.90;47.50
67899;DHT22;54699;51.796;10.956;2023-12-20T10:23:08;21.00;47.80
67899;DHT22;54699;51.796;10.956;2023-12-20T10:25:36;21.00;44.00
67899;DHT22;54699;51.796;10.956;2023-12-20T10:28:09;20.40;39.80
67899;DHT22;54699;51.796;10.956;2023-12-20T10:30:40;19.90;40.30
67899;DHT22;54699;51.796;10.956;2023-12-20T10:33:10;19.90;39.80
67899;DHT22;54699;51.796;10.956;2023-12-20T10:35:38;19.70;39.40
67899;DHT22;54699;51.796;10.956;2023-12-20T10:38:06;19.60;41.00
67899;DHT22;54699;51.796;10.956;2023-12-20T10:40:34;19.70;41.00
67899;DHT22;54699;51.796;10.956;2023-12-20T10:43:04;19.70;41.50
67899;DHT22;54699;51.796;10.956;2023-12-20T10:45:35;19.80;42.20
67899;DHT22;54699;51.796;10.956;2023-12-20T10:48:06;19.80;42.00
67899;DHT22;54699;51.796;10.956;2023-12-20T10:50:34;19.90;41.70
67899;DHT22;54699;51.796;10.956;2023-12-20T10:53:05;20.00;41.70
67899;DHT22;54699;51.796;10.956;2023-12-20T10:55:33;20.10;41.50
67899;DHT22;54699;51.796;10.956;2023-12-20T10:58:01;20.20;42.10
67899;DHT22;54699;51.796;10.956;2023-12-20T11:00:28;20.20;41.70
67899;DHT22;54699;51.796;10.956;2023-12-20T11:02:59;20.20;42.30
67899;DHT22;54699;51.796;10.956;2023-12-20T11:05:30;20.20;42.50
67899;DHT22;54699;51.796;10.956;2023-12-20T11:08:06;20.40;42.70
67899;DHT22;54699;51.796;10.956;2023-12-20T11:10:40;20.40;42.50
67899;DHT22;54699;51.796;10.956;2023-12-20T11:13:31;20.30;41.60
67899;DHT22;54699;51.796;10.956;2023-12-20T11:16:29;20.40;42.00
67899;DHT22;54699;51.796;10.956;2023-12-20T11:18:57;20.30;42.60
67899;DHT22;54699;51.796;10.956;2023-12-20T11:21:32;20.30;41.90
67899;DHT22;54699;51.796;10.956;2023-12-20T11:23:59;20.10;43.50
67899;DHT22;54699;51.796;10.956;2023-12-20T11:26:26;20.30;42.90
67899;DHT22;54699;51.796;10.956;2023-12-20T11:28:54;20.30;43.00
67899;DHT22;54699;51.796;10.956;2023-12-20T11:31:42;20.30;42.50
67899;DHT22;54699;51.796;10.956;2023-12-20T11:34:12;20.40;42.70
67899;DHT22;54699;51.796;10.956;2023-12-20T11:36:41;20.30;43.10
67899;DHT22;54699;51.796;10.956;2023-12-20T11:39:11;20.30;43.80
67899;DHT22;54699;51.796;10.956;2023-12-20T11:41:44;20.40;43.00
67899;DHT22;54699;51.796;10.956;2023-12-20T11:44:11;20.30;43.20
67899;DHT22;54699;51.796;10.956;2023-12-20T11:46:39;20.40;44.00
67899;DHT22;54699;51.796;10.956;2023-12-20T11:49:06;20.30;44.20
67899;DHT22;54699;51.796;10.956;2023-12-20T11:51:33;20.30;44.50
67899;DHT22;54699;51.796;10.956;2023-12-20T11:54:01;20.30;44.70
67899;DHT22;54699;51.796;10.956;2023-12-20T11:56:28;20.20;45.00
67899;DHT22;54699;51.796;10.956;2023-12-20T11:58:55;20.20;44.30
67899;DHT22;54699;51.796;10.956;2023-12-20T12:01:22;20.20;44.50
67899;DHT22;54699;51.796;10.956;2023-12-20T12:04:01;20.10;44.60
67899;DHT22;54699;51.796;10.956;2023-12-20T12:06:29;20.10;43.90
67899;DHT22;54699;51.796;10.956;2023-12-20T12:08:56;20.10;44.50
67899;DHT22;54699;51.796;10.956;2023-12-20T12:11:24;20.10;44.10
67899;DHT22;54699;51.796;10.956;2023-12-20T12:13:51;20.20;44.40
67899;DHT22;54699;51.796;10.956;2023-12-20T12:16:18;20.30;44.40
67899;DHT22;54699;51.796;10.956;2023-12-20T12:18:54;20.30;44.50
67899;DHT22;54699;51.796;10.956;2023-12-20T12:21:21;20.40;44.60
67899;DHT22;54699;51.796;10.956;2023-12-20T12:23:48;20.40;44.70
67899;DHT22;54699;51.796;10.956;2023-12-20T12:26:15;20.30;44.20
67899;DHT22;54699;51.796;10.956;2023-12-20T12:28:43;20.40;44.50
67899;DHT22;54699;51.796;10.956;2023-12-20T12:31:13;20.30;44.00
67899;DHT22;54699;51.796;10.956;2023-12-20T12:33:42;20.40;44.50
67899;DHT22;54699;51.796;10.956;2023-12-20T12:36:12;20.40;45.00
67899;DHT22;54699;51.796;10.956;2023-12-20T12:38:41;20.30;45.00
67899;DHT22;54699;51.796;10.956;2023-12-20T12:41:08;20.40;44.90
67899;DHT22;54699;51.796;10.956;2023-12-20T12:43:36;20.40;44.50
67899;DHT22;54699;51.796;10.956;2023-12-20T12:46:05;20.40;44.40
67899;DHT22;54699;51.796;10.956;2023-12-20T12:48:32;20.40;44.50
67899;DHT22;54699;51.796;10.956;2023-12-20T12:50:59;20.30;44.60
67899;DHT22;54699;51.796;10.956;2023-12-20T12:53:26;20.30;44.90
67899;DHT22;54699;51.796;10.956;2023-12-20T12:55:53;20.30;44.70
67899;DHT22;54699;51.796;10.956;2023-12-20T12:58:20;20.30;44.90
67899;DHT22;54699;51.796;10.956;2023-12-20T13:00:47;20.30;44.80
67899;DHT22;54699;51.796;10.956;2023-12-20T13:03:16;20.20;44.80
67899;DHT22;54699;51.796;10.956;2023-12-20T13:05:42;20.20;45.20
67899;DHT22;54699;51.796;10.956;2023-12-20T13:08:10;20.20;45.50
67899;DHT22;54699;51.796;10.956;2023-12-20T13:10:37;20.30;45.80
67899;DHT22;54699;51.796;10.956;2023-12-20T13:13:04;20.20;46.30
67899;DHT22;54699;51.796;10.956;2023-12-20T13:15:31;20.20;45.90
67899;DHT22;54699;51.796;10.956;2023-12-20T13:17:58;20.20;45.90
67899;DHT22;54699;51.796;10.956;2023-12-20T13:20:27;20.20;45.80
67899;DHT22;54699;51.796;10.956;2023-12-20T13:22:55;20.20;46.10
67899;DHT22;54699;51.796;10.956;2023-12-20T13:25:22;20.10;45.90
67899;DHT22;54699;51.796;10.956;2023-12-20T13:27:49;20.20;45.80
67899;DHT22;54699;51.796;10.956;2023-12-20T13:30:16;20.20;45.70
67899;DHT22;54699;51.796;10.956;2023-12-20T13:32:44;20.10;46.20
67899;DHT22;54699;51.796;10.956;2023-12-20T13:35:10;20.10;45.40
67899;DHT22;54699;51.796;10.956;2023-12-20T13:37:39;20.10;45.60
67899;DHT22;54699;51.796;10.956;2023-12-20T13:40:07;20.20;45.70
67899;DHT22;54699;51.796;10.956;2023-12-20T13:42:35;20.10;45.50
67899;DHT22;54699;51.796;10.956;2023-12-20T13:45:02;20.10;46.40
67899;DHT22;54699;51.796;10.956;2023-12-20T13:47:30;20.10;45.40
67899;DHT22;54699;51.796;10.956;2023-12-20T13:49:57;19.90;49.50
67899;DHT22;54699;51.796;10.956;2023-12-20T13:52:24;20.00;50.30
67899;DHT22;54699;51.796;10.956;2023-12-20T13:54:52;20.00;51.90
67899;DHT22;54699;51.796;10.956;2023-12-20T13:57:20;20.00;50.50
67899;DHT22;54699;51.796;10.956;2023-12-20T13:59:47;20.00;48.60
67899;DHT22;54699;51.796;10.956;2023-12-20T14:02:17;19.90;49.00
67899;DHT22;54699;51.796;10.956;2023-12-20T14:04:44;19.90;48.70
67899;DHT22;54699;51.796;10.956;2023-12-20T14:07:13;19.90;48.30
67899;DHT22;54699;51.796;10.956;2023-12-20T14:09:40;19.80;47.90
67899;DHT22;54699;51.796;10.956;2023-12-20T14:12:11;19.80;48.80
67899;DHT22;54699;51.796;10.956;2023-12-20T14:14:38;19.90;49.70
67899;DHT22;54699;51.796;10.956;2023-12-20T14:17:05;19.90;47.70
67899;DHT22;54699;51.796;10.956;2023-12-20T14:19:32;19.80;47.60
67899;DHT22;54699;51.796;10.956;2023-12-20T14:22:00;19.80;47.60
67899;DHT22;54699;51.796;10.956;2023-12-20T14:24:27;19.80;47.50
67899;DHT22;54699;51.796;10.956;2023-12-20T14:26:54;19.80;47.50
67899;DHT22;54699;51.796;10.956;2023-12-20T14:29:22;19.90;47.70
67899;DHT22;54699;51.796;10.956;2023-12-20T14:31:49;19.80;47.50
67899;DHT22;54699;51.796;10.956;2023-12-20T14:34:16;19.80;47.60
67899;DHT22;54699;51.796;10.956;2023-12-20T14:36:43;19.90;47.60
67899;DHT22;54699;51.796;10.956;2023-12-20T14:39:10;19.80;47.60
67899;DHT22;54699;51.796;10.956;2023-12-20T14:41:38;19.80;47.70
67899;DHT22;54699;51.796;10.956;2023-12-20T14:44:05;19.80;47.80
67899;DHT22;54699;51.796;10.956;2023-12-20T14:46:34;19.80;47.90
67899;DHT22;54699;51.796;10.956;2023-12-20T14:49:00;19.80;48.10
67899;DHT22;54699;51.796;10.956;2023-12-20T14:51:28;19.80;47.80
67899;DHT22;54699;51.796;10.956;2023-12-20T14:53:55;19.80;48.00
67899;DHT22;54699;51.796;10.956;2023-12-20T14:56:23;19.80;48.40
67899;DHT22;54699;51.796;10.956;2023-12-20T14:58:51;19.80;48.00
67899;DHT22;54699;51.796;10.956;2023-12-20T15:01:18;19.80;48.00
67899;DHT22;54699;51.796;10.956;2023-12-20T15:03:48;19.80;48.00
67899;DHT22;54699;51.796;10.956;2023-12-20T15:06:15;19.80;48.10
67899;DHT22;54699;51.796;10.956;2023-12-20T15:08:42;19.80;48.10
67899;DHT22;54699;51.796;10.956;2023-12-20T15:11:09;19.80;48.10
67899;DHT22;54699;51.796;10.956;2023-12-20T15:13:35;19.70;48.20
67899;DHT22;54699;51.796;10.956;2023-12-20T15:16:03;19.70;49.20
67899;DHT22;54699;51.796;10.956;2023-12-20T15:18:30;19.70;48.40
67899;DHT22;54699;51.796;10.956;2023-12-20T15:20:59;19.70;48.30